createdAt,value
2018-07-04T00:01:59.161Z,51.71
2018-07-04T00:04:45.996Z,50.61
2018-07-04T00:07:32.351Z,51.22
2018-07-04T00:10:18.588Z,51.62
2018-07-04T00:13:05.125Z,50.72
2018-07-04T00:15:52.008Z,52.02
2018-07-04T00:18:39.067Z,52.38
2018-07-04T00:21:25.920Z,50.10
2018-07-04T00:24:12.725Z,50.22
2018-07-04T00:26:59.674Z,51.27
2018-07-04T00:29:46.114Z,52.87
2018-07-04T00:32:32.627Z,54.58
2018-07-04T00:35:18.875Z,54.31
2018-07-04T00:38:06.401Z,57.29
2018-07-04T00:40:53.077Z,58.19
2018-07-04T00:43:40.025Z,57.41
2018-07-04T00:46:31.868Z,57.78
2018-07-04T00:49:18.112Z,56.00
2018-07-04T00:52:04.484Z,53.55
2018-07-04T00:54:51.088Z,51.13
2018-07-04T00:57:37.625Z,49.93
2018-07-04T01:00:24.517Z,50.00
2018-07-04T01:03:11.358Z,52.27
2018-07-04T01:05:58.252Z,53.89
2018-07-04T01:08:44.636Z,51.20
2018-07-04T01:11:33.104Z,54.11
2018-07-04T01:14:19.452Z,51.90
2018-07-04T01:17:06.205Z,53.16
2018-07-04T01:19:53.133Z,52.53
2018-07-04T01:22:39.626Z,56.77
2018-07-04T01:25:27.191Z,57.45
2018-07-04T01:28:13.909Z,56.74
2018-07-04T01:31:00.456Z,55.52
2018-07-04T01:33:46.758Z,54.26
2018-07-04T01:36:33.206Z,57.31
2018-07-04T01:39:19.384Z,57.82
2018-07-04T01:42:06.052Z,54.16
2018-07-04T01:44:52.417Z,56.13
2018-07-04T01:47:39.810Z,54.05
2018-07-04T01:50:28.260Z,57.14
2018-07-04T01:53:14.916Z,61.58
2018-07-04T01:56:01.575Z,62.91
2018-07-04T01:58:48.015Z,62.33
2018-07-04T02:01:36.196Z,64.77
2018-07-04T02:04:22.924Z,64.28
2018-07-04T02:07:11.538Z,64.28
2018-07-04T02:09:58.476Z,62.97
2018-07-04T02:12:45.899Z,59.61
2018-07-04T02:15:33.649Z,56.35
2018-07-04T02:18:20.105Z,59.56
2018-07-04T02:21:10.608Z,58.49
2018-07-04T02:24:02.658Z,62.90
2018-07-04T02:26:49.990Z,57.54
2018-07-04T02:32:36.024Z,64.04
2018-07-04T02:35:44.044Z,63.55
2018-07-04T02:41:35.288Z,55.87
2018-07-04T02:47:34.001Z,55.77
2018-07-04T02:53:19.063Z,60.44
2018-07-04T02:56:15.319Z,57.66
2018-07-04T02:59:24.211Z,54.64
2018-07-04T03:02:17.525Z,59.09
2018-07-04T03:05:17.058Z,59.19
2018-07-04T03:08:17.015Z,57.52
2018-07-04T03:11:16.484Z,57.54
2018-07-04T03:20:47.082Z,62.10
2018-07-04T03:26:34.160Z,65.88
2018-07-04T03:29:28.392Z,64.98
2018-07-04T03:32:18.095Z,63.98
2018-07-04T03:35:06.894Z,59.64
2018-07-04T03:38:03.722Z,57.50
2018-07-04T03:40:54.716Z,58.04
2018-07-04T03:43:47.612Z,63.87
2018-07-04T03:46:39.135Z,65.58
2018-07-04T03:49:33.981Z,61.21
2018-07-04T03:52:26.463Z,58.23
2018-07-04T03:55:19.007Z,57.10
2018-07-04T03:58:08.506Z,56.42
2018-07-04T04:01:01.324Z,55.72
2018-07-04T04:03:48.090Z,54.84
2018-07-04T04:06:35.061Z,57.47
2018-07-04T04:51:59.740Z,56.95
2018-07-04T04:54:46.341Z,56.05
2018-07-04T04:57:32.992Z,55.80
2018-07-04T05:03:03.794Z,58.21
2018-07-04T05:05:50.564Z,66.56
2018-07-04T05:08:38.773Z,64.80
2018-07-04T05:11:24.971Z,65.37
2018-07-04T05:14:11.822Z,61.76
2018-07-04T05:16:58.529Z,58.07
2018-07-04T05:19:51.588Z,58.06
2018-07-04T05:22:39.464Z,57.36
2018-07-04T05:25:25.752Z,55.76
2018-07-04T05:28:13.591Z,56.48
2018-07-04T05:31:00.970Z,56.10
2018-07-04T05:33:48.729Z,56.54
2018-07-04T05:36:35.958Z,55.86
2018-07-04T05:39:22.561Z,58.12
2018-07-04T05:42:10.230Z,56.81
2018-07-04T05:44:56.662Z,56.01
2018-07-04T05:47:43.299Z,54.88
2018-07-04T05:53:27.934Z,57.61
2018-07-04T05:56:16.950Z,58.08
2018-07-04T05:59:09.497Z,62.21
2018-07-04T06:01:58.370Z,64.42
2018-07-04T06:04:50.051Z,62.14
2018-07-04T06:07:40.709Z,64.46
2018-07-04T06:10:33.405Z,61.75
2018-07-04T06:22:17.229Z,56.18
2018-07-04T06:25:04.581Z,54.83
2018-07-04T06:27:56.532Z,55.66
2018-07-04T06:30:43.683Z,57.98
2018-07-04T06:33:43.712Z,63.14
2018-07-04T06:39:26.976Z,58.17
2018-07-04T06:41:54.993Z,58.17
2018-07-04T06:44:24.336Z,59.55
2018-07-04T06:46:54.251Z,57.61
2018-07-04T06:49:24.037Z,57.10
2018-07-04T06:51:54.529Z,59.63
2018-07-04T06:54:23.787Z,58.16
2018-07-04T06:56:55.125Z,56.68
2018-07-04T06:59:24.301Z,58.85
2018-07-04T07:01:54.845Z,59.63
2018-07-04T07:04:41.044Z,57.58
2018-07-04T07:07:31.521Z,57.19
2018-07-04T07:10:18.540Z,57.12
2018-07-04T07:13:05.278Z,56.12
2018-07-04T07:15:52.407Z,56.61
2018-07-04T07:18:39.450Z,56.95
2018-07-04T07:21:25.895Z,56.57
2018-07-04T07:24:13.591Z,56.06
2018-07-04T07:27:00.741Z,56.28
2018-07-04T07:29:49.679Z,57.17
2018-07-04T07:32:37.442Z,55.78
2018-07-04T07:35:24.473Z,57.70
2018-07-04T07:38:10.599Z,56.12
2018-07-04T07:40:58.999Z,58.15
2018-07-04T07:43:47.030Z,56.73
2018-07-04T07:46:36.707Z,56.14
2018-07-04T07:49:23.777Z,55.21
2018-07-04T07:52:10.051Z,57.08
2018-07-04T07:55:01.444Z,57.52
2018-07-04T07:57:49.027Z,56.07
2018-07-04T08:00:36.788Z,56.89
2018-07-04T08:03:27.532Z,56.86
2018-07-04T08:06:16.373Z,56.01
2018-07-04T08:09:05.811Z,55.26
2018-07-04T08:11:52.935Z,55.42
2018-07-04T08:14:39.465Z,54.80
2018-07-04T08:17:26.416Z,54.39
2018-07-04T08:20:14.178Z,55.04
2018-07-04T08:23:03.997Z,55.92
2018-07-04T08:25:52.118Z,54.32
2018-07-04T08:28:39.705Z,54.54
2018-07-04T08:31:33.696Z,55.74
2018-07-04T08:34:23.976Z,55.29
2018-07-04T08:37:11.846Z,54.10
2018-07-04T08:40:15.759Z,55.49
2018-07-04T08:43:06.911Z,54.89
2018-07-04T08:45:55.159Z,54.36
2018-07-04T08:48:42.821Z,53.50
2018-07-04T08:51:39.087Z,52.75
2018-07-04T08:54:27.814Z,53.09
2018-07-04T08:57:23.110Z,51.97
2018-07-04T09:00:11.245Z,52.83
2018-07-04T09:03:06.241Z,51.74
2018-07-04T09:05:54.409Z,51.96
2018-07-04T09:08:42.451Z,52.25
2018-07-04T09:14:35.207Z,50.91
2018-07-04T09:17:24.889Z,50.22
2018-07-04T09:20:11.133Z,48.83
2018-07-04T09:23:02.503Z,50.79
2018-07-04T09:25:53.558Z,47.80
2018-07-04T09:28:39.904Z,48.69
2018-07-04T09:31:32.795Z,49.65
2018-07-04T09:34:24.777Z,49.37
2018-07-04T09:37:14.717Z,49.60
2018-07-04T09:40:05.509Z,48.62
2018-07-04T09:42:53.053Z,47.25
2018-07-04T09:45:39.535Z,46.87
2018-07-04T09:48:27.017Z,48.22
2018-07-04T09:51:18.205Z,44.58
2018-07-04T09:54:07.907Z,43.20
2018-07-04T09:59:56.135Z,42.07
2018-07-04T10:02:47.803Z,42.35
2018-07-04T10:05:36.576Z,43.35
2018-07-04T10:08:29.745Z,42.05
2018-07-04T10:11:23.916Z,37.18
2018-07-04T10:14:10.327Z,39.13
2018-07-04T10:16:57.094Z,35.31
2018-07-04T10:19:46.344Z,37.79
2018-07-04T10:22:36.242Z,36.56
2018-07-04T10:37:44.319Z,38.86
2018-07-04T10:40:43.480Z,38.47
2018-07-04T10:47:56.028Z,36.88
2018-07-04T10:50:55.862Z,36.28
2018-07-04T10:53:56.200Z,36.25
2018-07-04T10:56:56.507Z,36.90
2018-07-04T11:03:53.405Z,37.25
2018-07-04T11:15:07.668Z,37.03
2018-07-04T11:18:06.792Z,37.14
2018-07-04T11:21:07.122Z,37.09
2018-07-04T11:24:07.388Z,37.93
2018-07-04T11:30:07.536Z,37.63
2018-07-04T11:33:07.445Z,37.18
2018-07-04T11:36:04.724Z,38.15
2018-07-04T11:39:38.090Z,37.69
2018-07-04T11:42:48.975Z,39.24
2018-07-04T11:45:40.645Z,39.20
2018-07-04T11:51:19.761Z,38.83
2018-07-04T11:53:50.986Z,37.86
2018-07-04T11:59:02.925Z,37.15
2018-07-04T12:01:32.248Z,36.06
2018-07-04T12:04:31.472Z,37.73
2018-07-04T12:07:17.467Z,36.93
2018-07-04T12:09:49.820Z,36.29
2018-07-04T12:12:23.073Z,37.05
2018-07-04T12:17:40.942Z,35.95
2018-07-04T12:20:31.297Z,36.63
2018-07-04T12:25:45.588Z,36.96
2018-07-04T12:41:11.234Z,40.76
2018-07-04T12:43:52.766Z,39.87
2018-07-04T12:46:24.382Z,39.09
2018-07-04T12:51:52.804Z,37.91
2018-07-04T12:57:21.928Z,39.87
2018-07-04T13:40:05.540Z,39.90
2018-07-04T13:43:06.043Z,40.53
2018-07-04T13:46:06.328Z,40.09
2018-07-04T13:49:05.792Z,39.88
2018-07-04T13:52:05.180Z,40.52
2018-07-04T13:55:04.537Z,40.23
2018-07-04T13:58:05.812Z,39.16
2018-07-04T14:01:05.136Z,39.61
2018-07-04T14:04:04.507Z,39.71
2018-07-04T14:10:06.560Z,40.39
2018-07-04T14:13:05.008Z,40.61
2018-07-04T14:16:04.710Z,40.10
2018-07-04T14:19:04.984Z,39.80
2018-07-04T14:37:58.390Z,41.52
2018-07-04T14:40:58.656Z,40.87
2018-07-04T14:43:58.952Z,40.43
2018-07-04T14:50:01.321Z,41.14
2018-07-04T14:52:59.471Z,42.76
2018-07-04T15:08:29.928Z,41.55
2018-07-04T15:24:10.684Z,42.05
2018-07-04T15:27:10.471Z,42.02
2018-07-04T15:30:10.272Z,42.22
2018-07-04T16:00:37.557Z,43.89
2018-07-04T16:11:08.251Z,43.38
2018-07-04T16:14:07.206Z,43.22
2018-07-04T16:20:06.114Z,43.82
2018-07-04T16:23:06.345Z,44.12
2018-07-04T16:29:05.744Z,44.32
2018-07-04T16:32:05.068Z,44.07
2018-07-04T17:00:28.499Z,45.96
2018-07-04T17:03:25.739Z,46.98
2018-07-04T17:11:40.590Z,48.28
2018-07-04T17:14:37.074Z,45.74
2018-07-04T17:27:06.965Z,46.98
2018-07-04T17:42:51.355Z,47.75
2018-07-04T17:45:50.152Z,46.64
2018-07-04T17:48:50.647Z,46.32
2018-07-04T17:51:50.146Z,47.78
2018-07-04T17:54:49.822Z,47.79
2018-07-04T17:57:49.833Z,48.97
2018-07-04T18:00:50.213Z,47.88
2018-07-04T18:03:49.654Z,48.25
2018-07-04T18:06:50.056Z,48.25
2018-07-04T18:09:51.395Z,49.56
2018-07-04T18:12:49.857Z,47.83
2018-07-04T18:15:51.192Z,48.81
2018-07-04T18:37:05.419Z,49.07
2018-07-04T18:40:07.483Z,48.70
2018-07-04T18:43:06.216Z,49.46
2018-07-04T18:49:06.739Z,51.99
2018-07-04T18:52:02.929Z,50.88
2018-07-04T18:55:03.368Z,50.53
2018-07-04T19:08:04.527Z,53.28
2018-07-04T19:11:03.367Z,53.79
2018-07-04T19:14:03.149Z,52.41
2018-07-04T19:17:03.532Z,53.48
2018-07-04T19:20:19.711Z,54.71
2018-07-04T19:23:16.473Z,56.00
2018-07-04T19:26:16.040Z,54.68
2018-07-04T20:00:31.368Z,51.43
2018-07-04T20:03:27.382Z,53.15
2018-07-04T20:19:00.142Z,51.04
2018-07-04T20:21:56.273Z,53.09
2018-07-04T20:37:28.284Z,56.51
2018-07-04T20:54:41.764Z,53.91
2018-07-04T20:57:42.248Z,53.75
2018-07-04T21:00:42.504Z,54.71
2018-07-04T21:03:42.807Z,59.18
2018-07-04T21:09:44.950Z,58.39
2018-07-04T21:39:09.979Z,58.33
2018-07-04T21:44:52.939Z,56.79
2018-07-04T21:47:39.477Z,55.53
2018-07-04T21:50:30.632Z,55.02
2018-07-04T21:53:23.103Z,55.39
2018-07-04T21:59:24.321Z,58.34
2018-07-04T22:21:23.256Z,60.52
2018-07-04T22:24:23.538Z,61.56
2018-07-04T22:27:17.966Z,61.71
2018-07-04T22:30:18.220Z,62.90
2018-07-04T22:33:18.629Z,63.27
2018-07-04T22:36:18.107Z,64.73
2018-07-04T22:39:18.584Z,67.95
2018-07-04T22:54:46.070Z,69.84
2018-07-04T23:11:14.504Z,61.93
2018-07-04T23:43:55.761Z,65.67
2018-07-04T23:54:11.117Z,70.46
